Capitol Logistics 3270




KMIA
Miami International Airport
Miami, Florida
KSAV
Savannah/Hilton Head International Airport
Savannah, Georgia

Activity Log

Date Flight Route Aircraft Duration
04/08/2021 CPX3270 PIONN V437 MLB V3 OMN V437 KELER SF34 2h 02m
03/29/2021 CPX3270 HEDLY2 HEDLY V267 PHK V437 MLB V3 OMN V437 KELER SF34 1h 41m
12/31/2019 CPX3270 HEDLY J53 CRG B752 1h 31m
12/23/2019 CPX3270 PIONN V437 MLB V3 OMN V437 KELER SF34 2h 04m
11/26/2019 CPX3270 PIONN V437 MLB V3 OMN V437 KELER SF34 2h 27m
10/10/2019 CPX670 PIONN V437 MLB V3 OMN V437 KELER SF34 1h 36m
09/24/2019 CPX670 PIONN V437 MLB V3 OMN V437 KELER SF34 1h 40m
05/01/2019 CPX670 DHP V437 MLB V3 OMN V437 KELER SF34 1h 43m
03/22/2019 CPX670 PIONN V437 MLB V3 OMN V437 KELER SF34 1h 55m

Route Details

Aircraft Information
Primary: Saab 340AF
Backup: Not Available
Route Data
Distance: 382nm
Duration: 2h 20m
Recm'd Route: PIONN V437 MLB V3 OMN V437 KELER
Origin Wx: KMIA 180153Z 28006KT 10SM CLR 26/18 A2991 RMK AO2 SLP128 T02610178 $
Dest. Wx: KSAV 180153Z 19007KT 10SM FEW060 SCT110 SCT200 19/16 A2985 RMK AO2 SLP106 T01940161
Notes: